createdAt,value
2018-05-17T00:00:45.079Z,6.83
2018-05-17T00:03:13.126Z,7.03
2018-05-17T00:05:41.165Z,8.17
2018-05-17T00:08:09.270Z,8.27
2018-05-17T00:10:37.317Z,8.30
2018-05-17T00:13:05.365Z,8.17
2018-05-17T00:15:33.422Z,8.67
2018-05-17T00:18:02.221Z,8.73
2018-05-17T00:20:30.278Z,8.67
2018-05-17T00:22:58.334Z,8.10
2018-05-17T00:25:26.378Z,8.70
2018-05-17T00:27:54.426Z,8.50
2018-05-17T00:30:22.514Z,9.10
2018-05-17T00:32:50.554Z,8.40
2018-05-17T00:35:18.623Z,9.87
2018-05-17T00:37:46.703Z,8.40
2018-05-17T00:40:15.522Z,8.33
2018-05-17T00:42:43.606Z,8.90
2018-05-17T00:45:11.672Z,8.90
2018-05-17T00:47:39.714Z,9.10
2018-05-17T00:50:07.765Z,9.70
2018-05-17T00:52:35.834Z,9.97
2018-05-17T00:55:03.911Z,9.60
2018-05-17T00:57:32.742Z,8.93
2018-05-17T01:00:00.798Z,10.87
2018-05-17T01:02:28.862Z,10.23
2018-05-17T01:04:56.926Z,9.83
2018-05-17T01:07:25.010Z,10.67
2018-05-17T01:09:53.058Z,11.77
2018-05-17T01:12:21.177Z,9.90
2018-05-17T01:14:49.250Z,9.80
2018-05-17T01:17:17.354Z,9.80
2018-05-17T01:19:45.446Z,11.40
2018-05-17T01:22:13.508Z,12.10
2018-05-17T01:24:41.566Z,12.30
2018-05-17T01:27:09.619Z,10.73
2018-05-17T01:29:37.682Z,11.60
2018-05-17T01:32:05.738Z,12.27
2018-05-17T01:34:33.789Z,11.37
2018-05-17T01:37:14.191Z,11.50
2018-05-17T01:39:42.255Z,10.60
2018-05-17T01:42:10.333Z,10.50
2018-05-17T01:44:38.374Z,10.27
2018-05-17T01:47:06.446Z,10.83
2018-05-17T01:49:34.505Z,10.43
2018-05-17T01:52:02.559Z,10.10
2018-05-17T01:54:30.617Z,10.30
2018-05-17T01:56:58.691Z,9.80
2018-05-17T01:59:26.746Z,9.37
2018-05-17T02:01:54.794Z,8.93
2018-05-17T02:04:22.840Z,9.40
2018-05-17T02:06:50.897Z,9.43
2018-05-17T02:09:18.994Z,9.80
2018-05-17T02:11:47.810Z,8.43
2018-05-17T02:14:15.858Z,8.60
2018-05-17T02:16:43.913Z,8.37
2018-05-17T02:19:12.769Z,8.83
2018-05-17T02:21:41.670Z,8.40
2018-05-17T02:24:09.715Z,8.63
2018-05-17T02:26:37.752Z,8.77
2018-05-17T02:29:05.801Z,8.27
2018-05-17T02:31:33.853Z,8.43
2018-05-17T02:34:01.905Z,7.83
2018-05-17T02:36:29.963Z,6.77
2018-05-17T02:38:58.006Z,8.23
2018-05-17T02:41:26.046Z,7.40
2018-05-17T02:43:54.107Z,7.50
2018-05-17T02:46:22.167Z,6.63
2018-05-17T02:48:50.219Z,7.30
2018-05-17T02:51:18.262Z,7.20
2018-05-17T02:53:47.077Z,7.60
2018-05-17T02:56:15.122Z,7.70
2018-05-17T02:58:43.953Z,8.13
2018-05-17T03:01:11.999Z,8.03
2018-05-17T03:03:40.058Z,8.43
2018-05-17T03:06:08.174Z,6.93
2018-05-17T03:08:36.219Z,6.90
2018-05-17T03:11:04.269Z,7.00
2018-05-17T03:13:32.331Z,6.40
2018-05-17T03:16:00.374Z,5.77
2018-05-17T03:18:28.429Z,6.27
2018-05-17T03:20:56.470Z,5.93
2018-05-17T03:23:24.518Z,7.20
2018-05-17T03:25:52.574Z,7.80
2018-05-17T03:28:20.634Z,9.63
2018-05-17T03:30:48.690Z,10.37
2018-05-17T03:33:16.759Z,11.70
2018-05-17T03:35:44.800Z,10.87
2018-05-17T03:38:13.622Z,11.10
2018-05-17T03:40:41.697Z,9.80
2018-05-17T03:43:09.782Z,9.93
2018-05-17T03:45:37.826Z,10.30
2018-05-17T03:48:05.896Z,11.00
2018-05-17T03:50:33.954Z,10.70
2018-05-17T03:53:02.007Z,10.17
2018-05-17T03:55:30.068Z,10.77
2018-05-17T03:57:58.115Z,10.27
2018-05-17T04:00:27.687Z,10.57
2018-05-17T04:03:07.582Z,9.83
2018-05-17T04:05:44.526Z,10.50
2018-05-17T04:08:12.590Z,9.97
2018-05-17T04:10:40.697Z,9.77
2018-05-17T04:13:08.760Z,10.87
2018-05-17T04:15:36.824Z,10.60
2018-05-17T04:18:04.866Z,9.90
2018-05-17T04:20:32.942Z,10.30
2018-05-17T04:23:00.991Z,10.83
2018-05-17T04:25:29.806Z,10.63
2018-05-17T04:27:57.922Z,10.03
2018-05-17T04:30:25.972Z,10.03
2018-05-17T04:32:54.021Z,9.90
2018-05-17T04:35:22.074Z,10.77
2018-05-17T04:37:52.797Z,9.53
2018-05-17T04:40:20.892Z,9.60
2018-05-17T04:42:48.929Z,9.73
2018-05-17T04:45:16.973Z,9.27
2018-05-17T04:47:45.041Z,8.93
2018-05-17T04:50:13.097Z,8.90
2018-05-17T04:52:41.143Z,9.80
2018-05-17T04:55:09.962Z,8.57
2018-05-17T04:57:38.053Z,8.73
2018-05-17T05:00:06.128Z,8.97
2018-05-17T05:02:34.154Z,8.60
2018-05-17T05:05:02.198Z,8.80
2018-05-17T05:07:30.258Z,8.73
2018-05-17T05:09:58.329Z,8.43
2018-05-17T05:12:26.379Z,7.77
2018-05-17T05:14:54.441Z,8.63
2018-05-17T05:17:22.510Z,7.87
2018-05-17T05:19:50.569Z,8.37
2018-05-17T05:22:19.376Z,7.20
2018-05-17T05:24:47.417Z,7.53
2018-05-17T05:27:15.474Z,6.73
2018-05-17T05:29:43.521Z,7.30
2018-05-17T05:32:11.591Z,7.77
2018-05-17T05:34:39.653Z,8.10
2018-05-17T05:37:07.706Z,7.77
2018-05-17T05:39:35.749Z,8.13
2018-05-17T05:42:04.594Z,6.90
2018-05-17T05:44:32.699Z,7.23
2018-05-17T05:47:00.750Z,7.33
2018-05-17T05:49:29.648Z,6.67
2018-05-17T05:51:57.610Z,6.93
2018-05-17T05:54:25.666Z,7.00
2018-05-17T05:56:53.727Z,7.03
2018-05-17T05:59:21.765Z,6.73
2018-05-17T06:01:50.616Z,6.63
2018-05-17T06:04:18.816Z,6.60
2018-05-17T06:06:46.931Z,6.27
2018-05-17T06:09:14.976Z,6.53
2018-05-17T06:11:43.019Z,6.90
2018-05-17T06:14:11.077Z,6.47
2018-05-17T06:16:39.889Z,6.23
2018-05-17T06:19:07.942Z,6.57
2018-05-17T06:21:36.005Z,6.03
2018-05-17T06:24:04.075Z,5.90
2018-05-17T06:26:32.126Z,6.67
2018-05-17T06:29:00.189Z,6.47
2018-05-17T06:31:28.249Z,6.40
2018-05-17T06:33:56.298Z,6.00
2018-05-17T06:36:24.339Z,5.50
2018-05-17T06:38:53.160Z,5.87
2018-05-17T06:41:21.224Z,6.20
2018-05-17T06:43:49.310Z,5.53
2018-05-17T06:46:17.326Z,5.40
2018-05-17T06:48:45.423Z,5.70
2018-05-17T06:51:13.478Z,5.90
2018-05-17T06:53:41.560Z,4.73
2018-05-17T06:56:09.597Z,5.17
2018-05-17T06:58:37.642Z,5.00
2018-05-17T07:01:05.763Z,4.67
2018-05-17T07:03:33.774Z,5.03
2018-05-17T07:06:01.822Z,5.63
2018-05-17T07:08:29.900Z,4.43
2018-05-17T07:10:57.958Z,4.73
2018-05-17T07:13:26.012Z,4.43
2018-05-17T07:15:54.076Z,5.10
2018-05-17T07:18:22.308Z,4.97
2018-05-17T07:20:50.946Z,4.27
2018-05-17T07:23:19.150Z,5.13
2018-05-17T07:25:47.206Z,5.10
2018-05-17T07:28:15.270Z,4.63
2018-05-17T07:30:43.314Z,4.40
2018-05-17T07:33:11.378Z,4.40
2018-05-17T07:35:40.241Z,4.10
2018-05-17T07:38:08.314Z,3.93
2018-05-17T07:40:41.303Z,4.40
2018-05-17T07:43:09.370Z,4.00
2018-05-17T07:45:37.476Z,4.27
2018-05-17T07:48:05.519Z,4.50
2018-05-17T07:50:34.373Z,3.90
2018-05-17T07:53:02.651Z,3.90
2018-05-17T07:55:30.699Z,4.13
2018-05-17T07:57:58.731Z,3.90
2018-05-17T08:00:26.855Z,4.03
2018-05-17T08:02:54.837Z,5.07
2018-05-17T08:05:22.914Z,3.70
2018-05-17T08:07:50.994Z,4.30
2018-05-17T08:10:19.048Z,4.00
2018-05-17T08:12:47.081Z,3.63
2018-05-17T08:15:15.909Z,3.57
2018-05-17T08:17:43.977Z,3.87
2018-05-17T08:20:12.017Z,3.70
2018-05-17T08:22:40.055Z,3.27
2018-05-17T08:25:08.110Z,4.07
2018-05-17T08:27:36.182Z,3.40
2018-05-17T08:30:04.246Z,3.37
2018-05-17T08:32:37.137Z,3.07
2018-05-17T08:35:05.226Z,3.93
2018-05-17T08:37:33.263Z,3.80
2018-05-17T08:40:01.334Z,4.00
2018-05-17T08:42:29.459Z,3.23
2018-05-17T08:44:58.217Z,3.53
2018-05-17T08:47:26.282Z,2.97
2018-05-17T08:49:54.324Z,3.50
2018-05-17T08:52:23.125Z,3.30
2018-05-17T08:54:51.215Z,3.83
2018-05-17T08:57:19.274Z,3.60
2018-05-17T08:59:47.355Z,3.50
2018-05-17T09:02:15.386Z,3.60
2018-05-17T09:04:43.425Z,3.50
2018-05-17T09:07:11.486Z,3.53
2018-05-17T09:09:39.557Z,2.83
2018-05-17T09:12:07.606Z,2.87
2018-05-17T09:14:35.658Z,3.43
2018-05-17T09:17:03.712Z,2.93
2018-05-17T09:19:31.759Z,2.80
2018-05-17T09:21:59.830Z,3.10
2018-05-17T09:24:27.874Z,3.80
2018-05-17T09:26:55.918Z,3.17
2018-05-17T09:29:24.747Z,4.33
2018-05-17T09:31:52.982Z,3.03
2018-05-17T09:34:21.790Z,3.10
2018-05-17T09:36:49.844Z,3.33
2018-05-17T09:39:17.890Z,2.97
2018-05-17T09:41:45.926Z,2.50
2018-05-17T09:44:13.991Z,3.47
2018-05-17T09:46:42.030Z,3.30
2018-05-17T09:49:10.928Z,3.40
2018-05-17T09:51:39.007Z,3.60
2018-05-17T09:54:07.044Z,3.13
2018-05-17T09:56:35.118Z,2.57
2018-05-17T09:59:03.155Z,2.70
2018-05-17T10:01:31.977Z,2.80
2018-05-17T10:04:00.026Z,2.70
2018-05-17T10:06:28.066Z,2.80
2018-05-17T10:08:56.143Z,2.60
2018-05-17T10:11:24.161Z,2.57
2018-05-17T10:13:52.235Z,2.97
2018-05-17T10:16:20.280Z,2.97
2018-05-17T10:18:48.337Z,2.70
2018-05-17T10:21:16.390Z,2.60
2018-05-17T10:23:44.449Z,3.07
2018-05-17T10:26:12.493Z,2.53
2018-05-17T10:28:40.567Z,2.50
2018-05-17T10:31:08.639Z,1.90
2018-05-17T10:33:36.709Z,2.00
2018-05-17T10:36:04.754Z,2.83
2018-05-17T10:38:32.818Z,2.20
2018-05-17T10:41:00.870Z,2.40
2018-05-17T10:43:28.931Z,2.73
2018-05-17T10:45:57.406Z,2.53
2018-05-17T10:48:25.464Z,2.40
2018-05-17T10:50:53.506Z,2.53
2018-05-17T10:53:21.569Z,3.27
2018-05-17T10:55:49.613Z,2.90
2018-05-17T10:58:17.687Z,2.60
2018-05-17T11:00:45.775Z,2.23
2018-05-17T11:03:13.818Z,2.30
2018-05-17T11:05:41.874Z,2.90
2018-05-17T11:08:09.917Z,3.20
2018-05-17T11:10:37.970Z,2.60
2018-05-17T11:13:06.033Z,2.90
2018-05-17T11:15:34.086Z,3.43
2018-05-17T11:18:02.126Z,2.57
2018-05-17T11:20:30.185Z,2.57
2018-05-17T11:22:58.242Z,2.20
2018-05-17T11:25:26.290Z,3.03
2018-05-17T11:27:54.332Z,3.07
2018-05-17T11:30:22.398Z,3.30
2018-05-17T11:32:50.430Z,3.10
2018-05-17T11:35:18.470Z,2.97
2018-05-17T11:37:46.536Z,3.00
2018-05-17T11:40:14.582Z,4.03
2018-05-17T11:42:42.630Z,2.90
2018-05-17T11:45:10.685Z,2.80
2018-05-17T11:47:38.741Z,2.97
2018-05-17T11:50:06.862Z,3.63
2018-05-17T11:52:35.685Z,3.03
2018-05-17T11:55:03.742Z,3.07
2018-05-17T11:57:31.773Z,2.40
2018-05-17T12:00:06.586Z,2.67
2018-05-17T12:02:37.630Z,2.60
2018-05-17T12:05:09.519Z,3.57
2018-05-17T12:07:37.604Z,3.30
2018-05-17T12:10:14.538Z,2.73
2018-05-17T12:12:56.406Z,2.50
2018-05-17T12:15:27.607Z,3.17
2018-05-17T12:18:06.363Z,3.77
2018-05-17T12:20:36.287Z,2.87
2018-05-17T12:23:04.377Z,2.90
2018-05-17T12:25:33.149Z,2.60
2018-05-17T12:28:08.223Z,3.23
2018-05-17T12:30:36.310Z,3.13
2018-05-17T12:33:04.374Z,5.20
2018-05-17T12:35:32.437Z,4.73
2018-05-17T12:38:00.470Z,3.37
2018-05-17T12:40:28.534Z,3.03
2018-05-17T12:42:56.581Z,3.80
2018-05-17T12:45:36.405Z,3.77
2018-05-17T12:48:04.460Z,4.83
2018-05-17T12:50:32.518Z,3.87
2018-05-17T12:53:00.565Z,5.03
2018-05-17T12:55:29.377Z,4.03
2018-05-17T12:57:57.485Z,3.60
2018-05-17T13:00:25.530Z,4.37
2018-05-17T13:02:53.620Z,3.23
2018-05-17T13:05:24.158Z,3.67
2018-05-17T13:07:52.198Z,3.57
2018-05-17T13:10:20.286Z,4.20
2018-05-17T13:12:48.329Z,4.40
2018-05-17T13:15:16.378Z,3.70
2018-05-17T13:17:44.435Z,4.10
2018-05-17T13:20:12.640Z,3.90
2018-05-17T13:22:41.460Z,3.90
2018-05-17T13:25:09.551Z,2.97
2018-05-17T13:27:37.593Z,3.83
2018-05-17T13:30:05.651Z,2.90
2018-05-17T13:32:33.697Z,3.50
2018-05-17T13:35:01.742Z,3.57
2018-05-17T13:37:29.930Z,3.13
2018-05-17T13:39:57.889Z,3.33
2018-05-17T13:42:25.936Z,3.20
2018-05-17T13:44:53.982Z,3.70
2018-05-17T13:47:22.038Z,2.90
2018-05-17T13:49:50.894Z,3.00
2018-05-17T13:52:18.938Z,3.53
2018-05-17T13:54:47.031Z,3.17
2018-05-17T13:57:15.046Z,3.40
2018-05-17T13:59:43.863Z,3.10
2018-05-17T14:02:11.969Z,3.53
2018-05-17T14:04:40.023Z,3.40
2018-05-17T14:07:08.079Z,3.40
2018-05-17T14:09:36.132Z,2.67
2018-05-17T14:12:04.950Z,3.00
2018-05-17T14:14:33.030Z,3.20
2018-05-17T14:17:01.070Z,2.77
2018-05-17T14:19:29.129Z,2.70
2018-05-17T14:21:57.991Z,2.57
2018-05-17T14:24:26.041Z,2.57
2018-05-17T14:26:54.117Z,2.73
2018-05-17T14:29:22.183Z,2.80
2018-05-17T14:31:50.345Z,3.07
2018-05-17T14:34:18.398Z,3.00
2018-05-17T14:36:46.433Z,2.93
2018-05-17T14:39:14.478Z,2.77
2018-05-17T14:41:42.586Z,2.43
2018-05-17T14:44:10.650Z,2.60
2018-05-17T14:46:43.626Z,2.93
2018-05-17T14:49:11.705Z,2.77
2018-05-17T14:51:39.778Z,3.40
2018-05-17T14:54:07.820Z,3.00
2018-05-17T14:56:35.878Z,2.63
2018-05-17T14:59:03.942Z,2.37
2018-05-17T15:01:32.002Z,2.60
2018-05-17T15:04:00.821Z,2.63
2018-05-17T15:06:28.919Z,3.13
2018-05-17T15:08:57.000Z,2.67
2018-05-17T15:11:25.043Z,2.30
2018-05-17T15:13:53.166Z,2.20
2018-05-17T15:16:21.148Z,2.83
2018-05-17T15:18:49.199Z,3.07
2018-05-17T15:21:17.260Z,2.83
2018-05-17T15:23:45.322Z,3.67
2018-05-17T15:26:13.374Z,2.70
2018-05-17T15:28:42.197Z,2.47
2018-05-17T15:31:10.240Z,2.40
2018-05-17T15:33:38.287Z,2.70
2018-05-17T15:36:06.346Z,2.90
2018-05-17T15:38:34.414Z,2.70
2018-05-17T15:41:02.600Z,2.43
2018-05-17T15:43:30.698Z,3.00
2018-05-17T15:45:59.955Z,2.80
2018-05-17T15:48:29.656Z,2.97
2018-05-17T15:50:58.036Z,2.57
2018-05-17T15:53:27.241Z,3.10
2018-05-17T15:55:55.416Z,2.90
2018-05-17T15:58:23.988Z,2.63
2018-05-17T16:00:53.769Z,3.10
2018-05-17T16:03:21.956Z,2.90
2018-05-17T16:05:51.232Z,2.73
2018-05-17T16:08:20.471Z,3.10
2018-05-17T16:10:49.983Z,2.57
2018-05-17T16:13:18.983Z,2.97
2018-05-17T16:15:47.840Z,2.73
2018-05-17T16:18:16.462Z,3.00
2018-05-17T16:20:44.743Z,2.93
2018-05-17T16:23:13.081Z,3.27
2018-05-17T16:25:41.376Z,3.30
2018-05-17T16:28:12.477Z,3.73
2018-05-17T16:30:40.772Z,3.17
2018-05-17T16:33:08.822Z,3.37
2018-05-17T16:35:36.916Z,2.67
2018-05-17T16:38:04.978Z,3.23
2018-05-17T16:40:33.125Z,2.70
2018-05-17T16:43:01.194Z,2.97
2018-05-17T16:45:29.261Z,2.90
2018-05-17T16:47:58.109Z,2.97
2018-05-17T16:50:26.182Z,2.50
2018-05-17T16:52:54.235Z,2.73
2018-05-17T16:55:22.309Z,2.70
2018-05-17T16:57:50.425Z,2.43
2018-05-17T17:00:18.449Z,2.70
2018-05-17T17:02:46.546Z,2.47
2018-05-17T17:05:14.607Z,2.67
2018-05-17T17:07:42.707Z,2.70
2018-05-17T17:10:10.754Z,2.83
2018-05-17T17:12:38.794Z,2.70
2018-05-17T17:15:06.885Z,2.37
2018-05-17T17:17:34.974Z,2.73
2018-05-17T17:20:03.050Z,2.40
2018-05-17T17:22:31.101Z,2.90
2018-05-17T17:24:59.182Z,2.20
2018-05-17T17:27:27.230Z,2.50
2018-05-17T17:29:55.289Z,2.83
2018-05-17T17:32:23.366Z,2.60
2018-05-17T17:34:51.436Z,2.80
2018-05-17T17:37:24.637Z,2.37
2018-05-17T17:39:52.723Z,2.50
2018-05-17T17:42:24.417Z,2.83
2018-05-17T17:44:52.860Z,2.43
2018-05-17T17:47:20.985Z,2.50
2018-05-17T17:49:49.055Z,2.47
2018-05-17T17:52:17.886Z,2.93
2018-05-17T17:54:45.949Z,2.50
2018-05-17T17:57:14.048Z,2.40
2018-05-17T17:59:42.134Z,2.50
2018-05-17T18:02:10.226Z,2.63
2018-05-17T18:04:38.290Z,2.37
2018-05-17T18:07:06.358Z,2.67
2018-05-17T18:09:34.513Z,2.80
2018-05-17T18:12:02.545Z,2.87
2018-05-17T18:14:30.618Z,2.70
2018-05-17T18:16:58.722Z,2.90
2018-05-17T18:19:26.781Z,2.50
2018-05-17T18:21:54.866Z,2.50
2018-05-17T18:24:22.962Z,2.67
2018-05-17T18:26:51.791Z,2.57
2018-05-17T18:29:21.827Z,3.20
2018-05-17T18:31:49.881Z,2.47
2018-05-17T18:34:18.714Z,2.33
2018-05-17T18:36:46.830Z,2.57
2018-05-17T18:39:14.920Z,2.57
2018-05-17T18:41:42.958Z,2.10
2018-05-17T18:44:11.107Z,2.57
2018-05-17T18:46:39.183Z,2.67
2018-05-17T18:49:07.253Z,3.00
2018-05-17T18:51:35.420Z,2.47
2018-05-17T18:54:03.478Z,2.63
2018-05-17T18:56:31.570Z,2.40
2018-05-17T18:58:59.646Z,2.73
2018-05-17T19:01:27.726Z,1.87
2018-05-17T19:03:55.834Z,2.70
2018-05-17T19:06:24.809Z,2.40
2018-05-17T19:08:52.871Z,2.40
2018-05-17T19:11:26.029Z,2.60
2018-05-17T19:13:54.134Z,2.00
2018-05-17T19:16:23.173Z,2.40
2018-05-17T19:18:51.262Z,2.63
2018-05-17T19:21:19.350Z,2.23
2018-05-17T19:23:47.422Z,2.47
2018-05-17T19:26:15.497Z,2.90
2018-05-17T19:28:43.646Z,2.30
2018-05-17T19:31:16.552Z,2.57
2018-05-17T19:33:44.607Z,2.70
2018-05-17T19:36:12.677Z,2.23
2018-05-17T19:38:41.278Z,3.13
2018-05-17T19:41:09.351Z,2.30
2018-05-17T19:43:37.431Z,2.07
2018-05-17T19:46:05.519Z,2.13
2018-05-17T19:48:33.617Z,2.33
2018-05-17T19:51:01.721Z,1.90
2018-05-17T19:53:29.773Z,2.20
2018-05-17T19:56:09.517Z,2.27
2018-05-17T19:58:37.557Z,2.10
2018-05-17T20:01:05.607Z,2.33
2018-05-17T20:03:34.657Z,2.23
2018-05-17T20:06:02.723Z,2.00
2018-05-17T20:08:30.809Z,2.77
2018-05-17T20:10:58.923Z,2.17
2018-05-17T20:13:27.018Z,2.13
2018-05-17T20:15:55.854Z,2.40
2018-05-17T20:18:23.941Z,1.80
2018-05-17T20:20:52.019Z,2.03
2018-05-17T20:23:20.075Z,2.80
2018-05-17T20:25:48.349Z,2.07
2018-05-17T20:28:17.253Z,2.30
2018-05-17T20:30:45.245Z,1.97
2018-05-17T20:33:13.317Z,2.17
2018-05-17T20:35:41.390Z,2.17
2018-05-17T20:38:09.472Z,2.40
2018-05-17T20:40:37.545Z,2.60
2018-05-17T20:43:05.626Z,2.57
2018-05-17T20:45:33.709Z,2.23
2018-05-17T20:48:01.790Z,2.17
2018-05-17T20:50:29.829Z,2.50
2018-05-17T20:52:57.912Z,2.60
2018-05-17T20:55:25.970Z,2.30
2018-05-17T20:57:54.061Z,1.80
2018-05-17T21:00:22.157Z,1.97
2018-05-17T21:02:50.229Z,2.53
2018-05-17T21:05:18.279Z,2.37
2018-05-17T21:07:46.382Z,2.30
2018-05-17T21:10:14.462Z,2.53
2018-05-17T21:12:49.297Z,2.40
2018-05-17T21:15:17.350Z,2.13
2018-05-17T21:17:45.421Z,2.03
2018-05-17T21:20:13.502Z,2.00
2018-05-17T21:22:42.342Z,2.37
2018-05-17T21:25:10.422Z,2.27
2018-05-17T21:27:38.494Z,2.93
2018-05-17T21:30:07.314Z,2.40
2018-05-17T21:32:35.393Z,2.47
2018-05-17T21:35:03.462Z,2.53
2018-05-17T21:37:31.538Z,2.63
2018-05-17T21:39:59.617Z,2.33
2018-05-17T21:42:27.698Z,2.90
2018-05-17T21:44:55.767Z,2.80
2018-05-17T21:47:24.617Z,2.53
2018-05-17T21:49:52.686Z,2.53
2018-05-17T21:52:34.654Z,2.73
2018-05-17T21:55:02.710Z,2.83
2018-05-17T21:57:30.782Z,2.53
2018-05-17T21:59:59.630Z,2.43
2018-05-17T22:02:28.464Z,2.87
2018-05-17T22:04:57.301Z,2.33
2018-05-17T22:07:25.385Z,2.20
2018-05-17T22:09:55.198Z,2.37
2018-05-17T22:12:23.274Z,2.70
2018-05-17T22:14:51.341Z,2.60
2018-05-17T22:17:19.409Z,2.87
2018-05-17T22:19:47.477Z,2.93
2018-05-17T22:22:15.570Z,3.13
2018-05-17T22:24:43.645Z,3.17
2018-05-17T22:27:11.822Z,3.20
2018-05-17T22:29:39.899Z,2.43
2018-05-17T22:32:07.953Z,2.97
2018-05-17T22:34:37.531Z,2.33
2018-05-17T22:37:05.605Z,3.40
2018-05-17T22:39:33.662Z,2.80
2018-05-17T22:42:07.553Z,2.90
2018-05-17T22:44:36.379Z,2.93
2018-05-17T22:47:05.282Z,3.70
2018-05-17T22:49:33.350Z,2.63
2018-05-17T22:52:01.409Z,2.47
2018-05-17T22:54:29.450Z,2.93
2018-05-17T22:57:09.397Z,3.20
2018-05-17T22:59:39.081Z,3.20
2018-05-17T23:02:07.141Z,2.70
2018-05-17T23:04:35.210Z,3.03
2018-05-17T23:07:03.269Z,2.63
2018-05-17T23:09:31.318Z,3.50
2018-05-17T23:11:59.398Z,2.73
2018-05-17T23:14:27.458Z,2.90
2018-05-17T23:16:55.504Z,2.70
2018-05-17T23:19:24.342Z,2.60
2018-05-17T23:21:52.420Z,2.87
2018-05-17T23:24:20.482Z,2.70
2018-05-17T23:26:48.537Z,2.83
2018-05-17T23:29:16.617Z,2.43
2018-05-17T23:31:44.675Z,2.50
2018-05-17T23:34:12.729Z,2.80
2018-05-17T23:36:40.801Z,3.40
2018-05-17T23:39:08.878Z,3.53
2018-05-17T23:41:36.922Z,3.07
2018-05-17T23:44:04.994Z,2.73
2018-05-17T23:46:33.066Z,2.80
2018-05-17T23:49:01.141Z,3.10
2018-05-17T23:51:29.215Z,2.83
2018-05-17T23:53:57.346Z,2.97
2018-05-17T23:56:25.434Z,3.20
2018-05-17T23:58:54.262Z,3.13
